createdAt,value
2018-07-12T00:01:01.125Z,7.5
2018-07-12T00:06:03.348Z,7.1
2018-07-12T00:11:05.668Z,8.6
2018-07-12T00:16:08.117Z,5.3
2018-07-12T00:21:10.361Z,9
2018-07-12T00:26:12.656Z,6.5
2018-07-12T00:31:14.944Z,10.9
2018-07-12T00:36:17.132Z,8.9
2018-07-12T00:41:19.318Z,9.7
2018-07-12T00:46:21.609Z,9.4
2018-07-12T00:51:24.033Z,13.5
2018-07-12T00:56:26.372Z,11.3
2018-07-12T01:01:28.584Z,9.4
2018-07-12T01:06:30.961Z,7.6
2018-07-12T01:11:33.252Z,9.8
2018-07-12T01:16:35.470Z,12.4
2018-07-12T01:21:37.848Z,10.3
2018-07-12T01:26:40.155Z,7.7
2018-07-12T01:31:42.280Z,8.8
2018-07-12T01:36:44.698Z,6
2018-07-12T01:41:46.937Z,4.1
2018-07-12T01:46:49.283Z,3.9
2018-07-12T01:51:51.606Z,8.1
2018-07-12T01:56:53.841Z,5.8
2018-07-12T02:01:56.071Z,4.4
2018-07-12T02:06:58.482Z,8.3
2018-07-12T02:12:00.765Z,7.3
2018-07-12T02:17:03.033Z,5.4
2018-07-12T02:22:05.371Z,5.8
2018-07-12T02:27:07.487Z,5.1
2018-07-12T02:32:09.901Z,6.9
2018-07-12T02:37:12.174Z,5.8
2018-07-12T02:42:14.478Z,6.2
2018-07-12T02:47:16.949Z,5.2
2018-07-12T02:52:19.065Z,4.3
2018-07-12T02:57:21.274Z,5.1
2018-07-12T03:02:23.597Z,5.5
2018-07-12T03:07:25.903Z,4.7
2018-07-12T03:12:28.200Z,5.5
2018-07-12T03:17:30.459Z,9.1
2018-07-12T03:22:32.923Z,7
2018-07-12T03:27:35.059Z,4.6
2018-07-12T03:32:37.354Z,3.9
2018-07-12T03:37:39.619Z,5.9
2018-07-12T03:42:42.094Z,11.4
2018-07-12T03:47:44.265Z,5.4
2018-07-12T03:52:46.521Z,9.7
2018-07-12T03:57:49.088Z,10
2018-07-12T04:02:51.120Z,12.6
2018-07-12T04:07:53.348Z,12.8
2018-07-12T04:12:55.783Z,17.1
2018-07-12T04:17:57.985Z,8.1
2018-07-12T04:23:00.314Z,8.3
2018-07-12T04:28:02.633Z,6.6
2018-07-12T04:33:05.007Z,8.8
2018-07-12T04:38:07.124Z,13.9
2018-07-12T04:43:09.541Z,14.7
2018-07-12T04:48:11.726Z,8.2
2018-07-12T04:53:14.153Z,7.6
2018-07-12T04:58:16.446Z,9.8
2018-07-12T05:03:18.742Z,7.7
2018-07-12T05:08:21.021Z,5.8
2018-07-12T05:13:23.237Z,5.8
2018-07-12T05:18:25.557Z,10.2
2018-07-12T05:23:27.786Z,12.2
2018-07-12T05:28:30.218Z,12
2018-07-12T05:33:32.458Z,15.2
2018-07-12T05:38:34.694Z,20.700001
2018-07-12T05:43:37.119Z,18.700001
2018-07-12T05:48:39.383Z,14.4
2018-07-12T05:53:42.481Z,12
2018-07-12T05:58:43.949Z,11.8
2018-07-12T06:03:46.319Z,15.6
2018-07-12T06:08:48.439Z,13.9
2018-07-12T06:13:50.796Z,9.8
2018-07-12T06:18:53.195Z,12.6
2018-07-12T06:23:55.447Z,10.9
2018-07-12T06:28:57.687Z,10
2018-07-12T06:34:00.044Z,7.8
2018-07-12T06:39:02.441Z,9
2018-07-12T06:44:04.630Z,14
2018-07-12T06:49:07.002Z,9.8
2018-07-12T06:54:09.307Z,7.7
2018-07-12T06:59:11.411Z,12
2018-07-12T07:04:13.739Z,10.6
2018-07-12T07:09:16.232Z,11.3
2018-07-12T07:14:18.423Z,9
2018-07-12T07:19:20.589Z,9.2
2018-07-12T07:24:22.974Z,13.2
2018-07-12T07:29:25.361Z,9.5
2018-07-12T07:34:27.502Z,8
2018-07-12T07:39:29.917Z,11
2018-07-12T07:44:32.179Z,8.9
2018-07-12T07:49:34.449Z,7.6
2018-07-12T07:54:36.707Z,8.4
2018-07-12T07:59:39.024Z,6.8
2018-07-12T08:04:41.240Z,7.1
2018-07-12T08:09:43.649Z,6.5
2018-07-12T08:14:45.868Z,7.3
2018-07-12T08:19:48.272Z,9
2018-07-12T08:24:50.493Z,6.2
2018-07-12T08:29:52.796Z,6.9
2018-07-12T08:34:55.155Z,6.2
2018-07-12T08:39:57.391Z,8.9
2018-07-12T08:44:59.587Z,4.9
2018-07-12T08:50:01.903Z,4.5
2018-07-12T08:55:04.179Z,3.7
2018-07-12T09:00:06.534Z,7.8
2018-07-12T09:05:08.925Z,5.4
2018-07-12T09:10:11.177Z,6.2
2018-07-12T09:15:13.525Z,5.1
2018-07-12T09:20:15.832Z,7.3
2018-07-12T09:25:17.957Z,4.5
2018-07-12T09:30:20.264Z,5.3
2018-07-12T09:35:22.583Z,5
2018-07-12T09:40:24.854Z,4.6
2018-07-12T09:45:27.158Z,4.3
2018-07-12T09:50:29.529Z,4.9
2018-07-12T09:55:31.787Z,3.8
2018-07-12T10:00:34.056Z,4.4
2018-07-12T10:05:36.445Z,5.6
2018-07-12T10:10:38.771Z,5.5
2018-07-12T10:15:40.927Z,4.6
2018-07-12T10:20:43.304Z,3.9
2018-07-12T10:25:45.728Z,5.4
2018-07-12T10:30:47.868Z,6.7
2018-07-12T10:35:50.171Z,4.3
2018-07-12T10:40:52.341Z,4.3
2018-07-12T10:45:54.777Z,4.9
2018-07-12T10:50:57.094Z,4.5
2018-07-12T10:55:59.359Z,4.7
2018-07-12T11:01:01.541Z,4.6
2018-07-12T11:06:03.978Z,2
2018-07-12T11:11:06.150Z,6.8
2018-07-12T11:16:08.534Z,5.3
2018-07-12T11:21:10.864Z,4.4
2018-07-12T11:26:13.113Z,6.6
2018-07-12T11:31:15.330Z,3.5
2018-07-12T11:36:17.608Z,4.5
2018-07-12T11:41:19.948Z,5
2018-07-12T11:46:22.253Z,3.8
2018-07-12T11:51:24.537Z,5.1
2018-07-12T11:56:26.975Z,5.8
2018-07-12T12:01:29.208Z,4.5
2018-07-12T12:06:31.432Z,3
2018-07-12T12:11:33.771Z,3.6
2018-07-12T12:16:36.038Z,2.1
2018-07-12T12:21:38.231Z,3.3
2018-07-12T12:31:42.879Z,2.9
2018-07-12T12:36:45.218Z,4.1
2018-07-12T12:41:47.688Z,2.9
2018-07-12T12:46:49.845Z,3.2
2018-07-12T12:51:52.049Z,3.4
2018-07-12T12:56:54.377Z,2.2
2018-07-12T13:01:56.742Z,2.4
2018-07-12T13:06:58.966Z,2.4
2018-07-12T13:12:01.262Z,4
2018-07-12T13:17:03.611Z,3.5
2018-07-12T13:22:05.804Z,2.7
2018-07-12T13:27:08.064Z,2.3
2018-07-12T13:32:10.373Z,3.1
2018-07-12T13:37:12.789Z,3.3
2018-07-12T13:42:14.958Z,3.1
2018-07-12T13:47:17.272Z,2.2
2018-07-12T13:52:19.611Z,4.1
2018-07-12T13:57:22.106Z,3.2
2018-07-12T14:02:24.240Z,2.6
2018-07-12T14:07:26.528Z,2.3
2018-07-12T14:12:28.878Z,2
2018-07-12T14:17:31.062Z,2.2
2018-07-12T14:22:33.358Z,3.9
2018-07-12T14:27:35.621Z,3.3
2018-07-12T14:32:37.999Z,3
2018-07-12T14:37:40.298Z,2.1
2018-07-12T14:42:42.557Z,2.5
2018-07-12T14:47:44.989Z,2.2
2018-07-12T14:52:47.141Z,3.2
2018-07-12T14:57:49.392Z,2.7
2018-07-12T15:02:51.740Z,2.9
2018-07-12T15:07:54.047Z,2
2018-07-12T15:12:56.256Z,2.2
2018-07-12T15:17:58.603Z,1.8
2018-07-12T15:23:01.074Z,1.1
2018-07-12T15:28:03.304Z,2.4
2018-07-12T15:33:05.423Z,1.8
2018-07-12T15:38:07.773Z,2.8
2018-07-12T15:43:10.107Z,1.4
2018-07-12T15:48:12.393Z,0.9
2018-07-12T15:53:14.668Z,2
2018-07-12T15:58:16.963Z,3.2
2018-07-12T16:03:19.238Z,2.1
2018-07-12T16:08:21.557Z,1.7
2018-07-12T16:13:23.831Z,2
2018-07-12T16:18:26.221Z,2.5
2018-07-12T16:23:28.426Z,1.3
2018-07-12T16:28:30.744Z,2.4
2018-07-12T16:33:33.082Z,1.7
2018-07-12T16:38:35.391Z,3.2
2018-07-12T16:43:37.575Z,1
2018-07-12T16:48:39.916Z,2.4
2018-07-12T16:53:42.149Z,3.6
2018-07-12T17:03:47.648Z,2.3
2018-07-12T17:08:49.197Z,2
2018-07-12T17:13:51.597Z,3.6
2018-07-12T17:18:53.756Z,1.7
2018-07-12T17:23:56.070Z,2
2018-07-12T17:28:58.274Z,1.5
2018-07-12T17:34:00.583Z,2.9
2018-07-12T17:39:02.879Z,2.6
2018-07-12T17:44:05.257Z,1.6
2018-07-12T17:49:07.411Z,2.9
2018-07-12T17:54:09.714Z,2.8
2018-07-12T17:59:11.944Z,2.6
2018-07-12T18:04:14.529Z,2.2
2018-07-12T18:09:16.844Z,2.4
2018-07-12T18:14:19.041Z,4.2
2018-07-12T18:19:21.260Z,3.7
2018-07-12T18:24:23.498Z,1.9
2018-07-12T18:29:25.790Z,2.2
2018-07-12T18:34:28.072Z,2.2
2018-07-12T18:39:30.509Z,3.3
2018-07-12T18:44:32.642Z,1.6
2018-07-12T18:49:35.118Z,3.8
2018-07-12T18:54:37.384Z,2.2
2018-07-12T18:59:39.534Z,3.1
2018-07-12T19:04:41.988Z,3.4
2018-07-12T19:09:44.212Z,3.2
2018-07-12T19:14:46.449Z,3.6
2018-07-12T19:19:48.822Z,2.3
2018-07-12T19:24:51.187Z,3.3
2018-07-12T19:29:53.360Z,4.6
2018-07-12T19:34:55.652Z,4.1
2018-07-12T19:39:57.882Z,4.5
2018-07-12T19:45:00.400Z,4.4
2018-07-12T19:50:02.690Z,3.9
2018-07-12T19:55:04.791Z,3.6
2018-07-12T20:00:07.174Z,4.4
2018-07-12T20:05:09.465Z,3.4
2018-07-12T20:10:11.649Z,3.3
2018-07-12T20:15:14.124Z,4.8
2018-07-12T20:20:16.370Z,2.8
2018-07-12T20:25:18.593Z,3.6
2018-07-12T20:30:20.898Z,4.2
2018-07-12T20:35:23.273Z,2.6
2018-07-12T20:40:25.465Z,3.9
2018-07-12T20:45:27.767Z,2
2018-07-12T20:50:30.118Z,3
2018-07-12T20:55:32.421Z,3.4
2018-07-12T21:00:34.551Z,3.2
2018-07-12T21:05:36.895Z,5
2018-07-12T21:10:39.283Z,4.6
2018-07-12T21:15:41.549Z,4.2
2018-07-12T21:20:43.814Z,3.2
2018-07-12T21:25:45.997Z,4.3
2018-07-12T21:30:48.480Z,3.6
2018-07-12T21:35:50.677Z,2.9
2018-07-12T21:40:53.076Z,2.9
2018-07-12T21:45:55.180Z,3.3
2018-07-12T21:50:57.541Z,3
2018-07-12T21:55:59.895Z,2.2
2018-07-12T22:01:02.168Z,7.1
2018-07-12T22:06:04.562Z,3.2
2018-07-12T22:11:06.734Z,2.6
2018-07-12T22:16:09.138Z,5.7
2018-07-12T22:21:11.594Z,1.3
2018-07-12T22:26:13.686Z,4
2018-07-12T22:31:15.943Z,2.5
2018-07-12T22:36:18.132Z,1.2
2018-07-12T22:41:20.609Z,3.5
2018-07-12T22:46:22.707Z,6.7
2018-07-12T22:51:25.108Z,3.4
2018-07-12T22:56:27.405Z,5.3
2018-07-12T23:01:29.736Z,8.5
2018-07-12T23:06:31.987Z,6.6
2018-07-12T23:11:34.352Z,8.8
2018-07-12T23:16:36.588Z,4.2
2018-07-12T23:21:38.923Z,5.8
2018-07-12T23:26:41.293Z,2.8
2018-07-12T23:31:43.453Z,7.2
2018-07-12T23:36:45.846Z,5.4
2018-07-12T23:41:48.072Z,5.9
2018-07-12T23:46:50.445Z,7.7
2018-07-12T23:51:52.772Z,6.1
2018-07-12T23:56:55.168Z,4.2
